sensor_id;sensor_type;location;lat;lon;timestamp;pressure;altitude;pressure_sealevel;temperature;humidity
19576;BME280;41589;51.196;7.074;2023-04-05T00:01:51;99688.31;;;6.50;38.44
19576;BME280;41589;51.196;7.074;2023-04-05T00:06:52;99681.53;;;6.51;38.58
19576;BME280;41589;51.196;7.074;2023-04-05T00:11:53;99677.66;;;6.41;38.57
19576;BME280;41589;51.196;7.074;2023-04-05T00:16:53;99661.78;;;6.34;38.50
19576;BME280;41589;51.196;7.074;2023-04-05T00:21:54;99667.38;;;6.34;38.94
19576;BME280;41589;51.196;7.074;2023-04-05T00:26:54;99661.38;;;6.32;39.13
19576;BME280;41589;51.196;7.074;2023-04-05T00:31:55;99669.03;;;6.28;38.73
19576;BME280;41589;51.196;7.074;2023-04-05T00:36:56;99663.84;;;6.27;38.94
19576;BME280;41589;51.196;7.074;2023-04-05T00:41:56;99673.03;;;6.27;38.85
19576;BME280;41589;51.196;7.074;2023-04-05T00:46:56;99667.75;;;6.33;38.90
19576;BME280;41589;51.196;7.074;2023-04-05T00:51:58;99659.72;;;6.38;39.05
19576;BME280;41589;51.196;7.074;2023-04-05T00:56:59;99645.31;;;6.40;38.83
19576;BME280;41589;51.196;7.074;2023-04-05T01:02:02;99648.59;;;6.35;38.85
19576;BME280;41589;51.196;7.074;2023-04-05T01:07:21;99648.59;;;6.35;38.77
19576;BME280;41589;51.196;7.074;2023-04-05T01:12:28;99643.94;;;6.25;39.22
19576;BME280;41589;51.196;7.074;2023-04-05T01:17:32;99645.50;;;6.26;38.93
19576;BME280;41589;51.196;7.074;2023-04-05T01:33:43;99634.47;;;6.15;39.09
19576;BME280;41589;51.196;7.074;2023-04-05T01:38:48;99626.97;;;6.08;39.09
19576;BME280;41589;51.196;7.074;2023-04-05T01:43:50;99619.88;;;6.00;39.10
19576;BME280;41589;51.196;7.074;2023-04-05T01:48:50;99620.28;;;6.02;39.36
19576;BME280;41589;51.196;7.074;2023-04-05T01:53:50;99628.75;;;5.95;39.31
19576;BME280;41589;51.196;7.074;2023-04-05T01:58:51;99616.88;;;5.88;39.64
19576;BME280;41589;51.196;7.074;2023-04-05T02:03:52;99611.41;;;5.77;40.04
19576;BME280;41589;51.196;7.074;2023-04-05T02:08:53;99614.72;;;5.68;39.79
19576;BME280;41589;51.196;7.074;2023-04-05T02:13:53;99609.63;;;5.60;39.74
19576;BME280;41589;51.196;7.074;2023-04-05T02:18:54;99619.22;;;5.59;40.06
19576;BME280;41589;51.196;7.074;2023-04-05T02:23:57;99604.50;;;5.55;40.30
19576;BME280;41589;51.196;7.074;2023-04-05T02:28:57;99605.66;;;5.57;40.22
19576;BME280;41589;51.196;7.074;2023-04-05T02:33:57;99605.34;;;5.51;40.22
19576;BME280;41589;51.196;7.074;2023-04-05T02:39:00;99606.22;;;5.45;40.41
19576;BME280;41589;51.196;7.074;2023-04-05T02:44:00;99603.06;;;5.43;40.43
19576;BME280;41589;51.196;7.074;2023-04-05T02:49:04;99595.84;;;5.45;40.37
19576;BME280;41589;51.196;7.074;2023-04-05T02:54:06;99589.59;;;5.34;40.58
19576;BME280;41589;51.196;7.074;2023-04-05T02:59:09;99594.44;;;5.27;40.76
19576;BME280;41589;51.196;7.074;2023-04-05T03:04:11;99598.09;;;5.23;41.03
19576;BME280;41589;51.196;7.074;2023-04-05T03:09:13;99588.06;;;5.26;40.88
19576;BME280;41589;51.196;7.074;2023-04-05T03:14:14;99596.88;;;5.24;40.72
19576;BME280;41589;51.196;7.074;2023-04-05T03:19:20;99586.91;;;5.23;41.11
19576;BME280;41589;51.196;7.074;2023-04-05T03:24:24;99584.53;;;5.22;41.00
19576;BME280;41589;51.196;7.074;2023-04-05T03:29:25;99599.03;;;5.10;40.94
19576;BME280;41589;51.196;7.074;2023-04-05T03:34:27;99589.88;;;5.09;41.10
19576;BME280;41589;51.196;7.074;2023-04-05T03:39:35;99582.41;;;4.99;41.35
19576;BME280;41589;51.196;7.074;2023-04-05T03:44:36;99585.97;;;5.00;41.49
19576;BME280;41589;51.196;7.074;2023-04-05T03:49:37;99581.66;;;4.91;41.90
19576;BME280;41589;51.196;7.074;2023-04-05T03:54:37;99575.72;;;4.86;41.89
19576;BME280;41589;51.196;7.074;2023-04-05T03:59:40;99565.75;;;4.88;41.68
19576;BME280;41589;51.196;7.074;2023-04-05T04:04:42;99567.78;;;4.84;41.87
19576;BME280;41589;51.196;7.074;2023-04-05T04:09:43;99567.34;;;4.86;42.13
19576;BME280;41589;51.196;7.074;2023-04-05T04:14:45;99563.81;;;4.82;41.70
19576;BME280;41589;51.196;7.074;2023-04-05T04:20:02;99563.88;;;4.75;41.88
19576;BME280;41589;51.196;7.074;2023-04-05T04:25:32;99569.09;;;4.73;42.05
19576;BME280;41589;51.196;7.074;2023-04-05T04:30:39;99567.94;;;4.70;42.25
19576;BME280;41589;51.196;7.074;2023-04-05T04:35:51;99569.94;;;4.66;42.23
19576;BME280;41589;51.196;7.074;2023-04-05T04:41:05;99567.66;;;4.54;42.54
19576;BME280;41589;51.196;7.074;2023-04-05T04:46:41;99562.06;;;4.54;42.33
19576;BME280;41589;51.196;7.074;2023-04-05T04:51:48;99561.66;;;4.59;42.60
19576;BME280;41589;51.196;7.074;2023-04-05T04:56:49;99564.84;;;4.57;42.50
19576;BME280;41589;51.196;7.074;2023-04-05T05:01:49;99567.66;;;4.57;42.62
19576;BME280;41589;51.196;7.074;2023-04-05T05:06:52;99570.03;;;4.55;42.54
19576;BME280;41589;51.196;7.074;2023-04-05T05:11:52;99568.44;;;4.58;42.63
19576;BME280;41589;51.196;7.074;2023-04-05T05:16:53;99566.88;;;4.53;42.67
19576;BME280;41589;51.196;7.074;2023-04-05T05:21:54;99570.44;;;4.54;42.82
19576;BME280;41589;51.196;7.074;2023-04-05T05:26:54;99568.84;;;4.53;42.90
19576;BME280;41589;51.196;7.074;2023-04-05T05:31:54;99573.56;;;4.63;42.67
19576;BME280;41589;51.196;7.074;2023-04-05T05:36:55;99571.13;;;4.65;42.67
19576;BME280;41589;51.196;7.074;2023-04-05T05:41:56;99566.66;;;4.78;42.52
19576;BME280;41589;51.196;7.074;2023-04-05T05:46:56;99554.97;;;4.90;42.73
19576;BME280;41589;51.196;7.074;2023-04-05T05:51:57;99556.38;;;5.09;42.49
19576;BME280;41589;51.196;7.074;2023-04-05T05:56:57;99563.38;;;5.24;42.44
19576;BME280;41589;51.196;7.074;2023-04-05T06:01:58;99570.78;;;5.38;42.08
19576;BME280;41589;51.196;7.074;2023-04-05T06:06:59;99568.94;;;5.59;41.93
19576;BME280;41589;51.196;7.074;2023-04-05T06:12:00;99562.72;;;5.78;41.99
19576;BME280;41589;51.196;7.074;2023-04-05T06:17:00;99570.91;;;5.92;41.73
19576;BME280;41589;51.196;7.074;2023-04-05T06:22:01;99562.16;;;6.17;41.52
19576;BME280;41589;51.196;7.074;2023-04-05T06:27:01;99567.69;;;6.48;41.16
19576;BME280;41589;51.196;7.074;2023-04-05T06:32:02;99564.97;;;6.67;40.71
19576;BME280;41589;51.196;7.074;2023-04-05T06:37:02;99570.56;;;6.91;40.08
19576;BME280;41589;51.196;7.074;2023-04-05T06:42:03;99548.44;;;7.20;40.51
19576;BME280;41589;51.196;7.074;2023-04-05T06:47:12;99559.19;;;7.61;39.87
19576;BME280;41589;51.196;7.074;2023-04-05T06:52:13;99558.09;;;7.75;39.34
19576;BME280;41589;51.196;7.074;2023-04-05T06:57:13;99563.78;;;8.07;39.49
19576;BME280;41589;51.196;7.074;2023-04-05T07:02:14;99557.00;;;8.41;38.72
19576;BME280;41589;51.196;7.074;2023-04-05T07:07:14;99547.22;;;8.65;38.68
19576;BME280;41589;51.196;7.074;2023-04-05T07:12:15;99537.88;;;9.14;38.25
19576;BME280;41589;51.196;7.074;2023-04-05T07:17:16;99544.25;;;9.60;37.47
19576;BME280;41589;51.196;7.074;2023-04-05T07:22:16;99550.84;;;9.82;36.68
19576;BME280;41589;51.196;7.074;2023-04-05T07:27:16;99550.63;;;10.14;35.78
19576;BME280;41589;51.196;7.074;2023-04-05T07:32:17;99541.94;;;10.47;35.97
19576;BME280;41589;51.196;7.074;2023-04-05T07:37:17;99545.16;;;10.71;35.08
19576;BME280;41589;51.196;7.074;2023-04-05T07:42:17;99544.28;;;11.09;34.48
19576;BME280;41589;51.196;7.074;2023-04-05T07:47:21;99541.31;;;11.25;34.39
19576;BME280;41589;51.196;7.074;2023-04-05T07:52:21;99547.69;;;11.38;33.87
19576;BME280;41589;51.196;7.074;2023-04-05T07:57:21;99543.03;;;11.66;33.52
19576;BME280;41589;51.196;7.074;2023-04-05T08:02:22;99547.03;;;12.09;32.70
19576;BME280;41589;51.196;7.074;2023-04-05T08:07:22;99535.91;;;12.46;32.99
19576;BME280;41589;51.196;7.074;2023-04-05T08:12:25;99544.72;;;12.57;31.59
19576;BME280;41589;51.196;7.074;2023-04-05T08:17:25;99534.03;;;12.52;31.92
19576;BME280;41589;51.196;7.074;2023-04-05T08:22:27;99535.50;;;12.75;31.26
19576;BME280;41589;51.196;7.074;2023-04-05T08:27:30;99540.38;;;12.74;31.38
19576;BME280;41589;51.196;7.074;2023-04-05T08:32:31;99535.88;;;13.04;31.67
19576;BME280;41589;51.196;7.074;2023-04-05T08:37:34;99539.16;;;13.30;30.59
19576;BME280;41589;51.196;7.074;2023-04-05T08:42:37;99534.25;;;13.58;30.66
19576;BME280;41589;51.196;7.074;2023-04-05T08:47:41;99536.88;;;13.98;29.79
19576;BME280;41589;51.196;7.074;2023-04-05T08:52:44;99526.19;;;14.35;29.60
19576;BME280;41589;51.196;7.074;2023-04-05T08:57:52;99523.16;;;14.48;29.28
19576;BME280;41589;51.196;7.074;2023-04-05T09:02:55;99535.41;;;14.45;28.38
19576;BME280;41589;51.196;7.074;2023-04-05T09:07:57;99525.75;;;14.28;28.56
19576;BME280;41589;51.196;7.074;2023-04-05T09:12:59;99530.63;;;14.27;28.83
19576;BME280;41589;51.196;7.074;2023-04-05T09:17:59;99527.34;;;14.86;28.76
19576;BME280;41589;51.196;7.074;2023-04-05T09:23:00;99525.19;;;15.19;27.56
19576;BME280;41589;51.196;7.074;2023-04-05T09:28:00;99523.66;;;14.70;27.75
19576;BME280;41589;51.196;7.074;2023-04-05T09:33:03;99513.06;;;15.19;27.85
19576;BME280;41589;51.196;7.074;2023-04-05T09:38:06;99506.38;;;15.46;27.50
19576;BME280;41589;51.196;7.074;2023-04-05T09:43:34;99506.34;;;14.92;27.35
19576;BME280;41589;51.196;7.074;2023-04-05T09:48:49;99511.59;;;14.85;26.42
19576;BME280;41589;51.196;7.074;2023-04-05T09:54:04;99500.84;;;15.13;26.87
19576;BME280;41589;51.196;7.074;2023-04-05T09:59:07;99519.19;;;15.56;27.03
19576;BME280;41589;51.196;7.074;2023-04-05T10:04:09;99506.94;;;15.20;26.00
19576;BME280;41589;51.196;7.074;2023-04-05T10:09:10;99499.06;;;15.54;26.44
19576;BME280;41589;51.196;7.074;2023-04-05T10:14:11;99497.28;;;15.56;26.05
19576;BME280;41589;51.196;7.074;2023-04-05T10:19:19;99494.59;;;15.23;27.28
19576;BME280;41589;51.196;7.074;2023-04-05T10:24:39;99489.34;;;15.31;26.75
19576;BME280;41589;51.196;7.074;2023-04-05T10:30:03;99496.94;;;14.86;26.05
19576;BME280;41589;51.196;7.074;2023-04-05T10:35:14;99487.16;;;14.06;27.31
19576;BME280;41589;51.196;7.074;2023-04-05T10:40:17;99489.69;;;13.44;27.88
19576;BME280;41589;51.196;7.074;2023-04-05T10:45:19;99486.41;;;12.90;28.59
19576;BME280;41589;51.196;7.074;2023-04-05T10:50:23;99482.63;;;12.75;28.44
19576;BME280;41589;51.196;7.074;2023-04-05T10:55:23;99476.03;;;12.87;29.50
19576;BME280;41589;51.196;7.074;2023-04-05T11:00:24;99457.72;;;13.71;29.82
19576;BME280;41589;51.196;7.074;2023-04-05T11:05:31;99462.78;;;14.09;27.76
19576;BME280;41589;51.196;7.074;2023-04-05T11:10:36;99459.38;;;14.53;28.04
19576;BME280;41589;51.196;7.074;2023-04-05T11:15:37;99461.03;;;14.11;27.17
19576;BME280;41589;51.196;7.074;2023-04-05T11:20:45;99452.91;;;13.53;28.23
19576;BME280;41589;51.196;7.074;2023-04-05T11:30:50;99454.25;;;14.18;27.79
19576;BME280;41589;51.196;7.074;2023-04-05T11:35:59;99438.00;;;13.95;27.37
19576;BME280;41589;51.196;7.074;2023-04-05T11:41:09;99440.41;;;12.90;27.47
19576;BME280;41589;51.196;7.074;2023-04-05T11:46:10;99435.88;;;12.74;29.22
19576;BME280;41589;51.196;7.074;2023-04-05T11:51:11;99435.16;;;12.33;29.19
19576;BME280;41589;51.196;7.074;2023-04-05T11:56:12;99443.69;;;12.02;29.41
19576;BME280;41589;51.196;7.074;2023-04-05T12:01:16;99426.94;;;12.08;29.98
19576;BME280;41589;51.196;7.074;2023-04-05T12:06:21;99434.44;;;12.02;30.05
19576;BME280;41589;51.196;7.074;2023-04-05T12:11:26;99427.88;;;12.05;29.72
19576;BME280;41589;51.196;7.074;2023-04-05T12:16:27;99421.25;;;12.57;29.90
19576;BME280;41589;51.196;7.074;2023-04-05T12:21:29;99412.56;;;12.33;29.20
19576;BME280;41589;51.196;7.074;2023-04-05T12:26:29;99411.06;;;12.78;30.85
19576;BME280;41589;51.196;7.074;2023-04-05T12:31:43;99407.91;;;12.94;29.67
19576;BME280;41589;51.196;7.074;2023-04-05T12:36:44;99406.47;;;13.08;29.87
19576;BME280;41589;51.196;7.074;2023-04-05T12:41:55;99398.59;;;13.21;29.47
19576;BME280;41589;51.196;7.074;2023-04-05T12:47:01;99396.78;;;13.51;29.09
19576;BME280;41589;51.196;7.074;2023-04-05T12:52:02;99391.66;;;13.83;27.68
19576;BME280;41589;51.196;7.074;2023-04-05T12:57:02;99377.63;;;13.65;29.23
19576;BME280;41589;51.196;7.074;2023-04-05T13:02:07;99372.03;;;13.79;28.26
19576;BME280;41589;51.196;7.074;2023-04-05T13:07:08;99370.91;;;13.86;27.70
19576;BME280;41589;51.196;7.074;2023-04-05T13:12:08;99363.75;;;14.00;27.76
19576;BME280;41589;51.196;7.074;2023-04-05T13:17:08;99357.13;;;14.03;27.53
19576;BME280;41589;51.196;7.074;2023-04-05T13:22:09;99363.75;;;13.76;26.87
19576;BME280;41589;51.196;7.074;2023-04-05T13:27:09;99354.78;;;13.77;28.10
19576;BME280;41589;51.196;7.074;2023-04-05T13:32:10;99348.19;;;13.71;27.42
19576;BME280;41589;51.196;7.074;2023-04-05T13:37:10;99350.72;;;13.69;27.72
19576;BME280;41589;51.196;7.074;2023-04-05T13:42:11;99342.38;;;13.75;28.13
19576;BME280;41589;51.196;7.074;2023-04-05T13:47:11;99337.69;;;14.20;28.28
19576;BME280;41589;51.196;7.074;2023-04-05T13:52:14;99337.00;;;14.25;28.18
19576;BME280;41589;51.196;7.074;2023-04-05T13:57:14;99332.19;;;14.40;27.20
19576;BME280;41589;51.196;7.074;2023-04-05T14:02:15;99316.69;;;14.50;27.89
19576;BME280;41589;51.196;7.074;2023-04-05T14:07:20;99318.91;;;14.46;27.10
19576;BME280;41589;51.196;7.074;2023-04-05T14:12:21;99309.03;;;14.27;27.04
19576;BME280;41589;51.196;7.074;2023-04-05T14:17:21;99309.72;;;14.36;27.22
19576;BME280;41589;51.196;7.074;2023-04-05T14:22:21;99301.19;;;14.75;27.20
19576;BME280;41589;51.196;7.074;2023-04-05T14:27:22;99301.72;;;14.88;26.61
19576;BME280;41589;51.196;7.074;2023-04-05T14:32:25;99279.59;;;15.07;26.61
19576;BME280;41589;51.196;7.074;2023-04-05T14:37:26;99274.50;;;15.26;26.28
19576;BME280;41589;51.196;7.074;2023-04-05T14:42:26;99265.44;;;15.22;25.67
19576;BME280;41589;51.196;7.074;2023-04-05T14:47:27;99259.53;;;14.52;24.90
19576;BME280;41589;51.196;7.074;2023-04-05T14:52:27;99263.50;;;14.15;25.13
19576;BME280;41589;51.196;7.074;2023-04-05T14:57:28;99267.00;;;14.25;25.84
19576;BME280;41589;51.196;7.074;2023-04-05T15:02:28;99269.22;;;13.82;26.09
19576;BME280;41589;51.196;7.074;2023-04-05T15:07:29;99267.22;;;14.22;25.90
19576;BME280;41589;51.196;7.074;2023-04-05T15:12:30;99253.56;;;14.35;26.49
19576;BME280;41589;51.196;7.074;2023-04-05T15:17:31;99256.03;;;14.42;26.19
19576;BME280;41589;51.196;7.074;2023-04-05T15:22:31;99259.84;;;14.39;26.27
19576;BME280;41589;51.196;7.074;2023-04-05T15:27:32;99254.16;;;14.54;26.28
19576;BME280;41589;51.196;7.074;2023-04-05T15:32:32;99245.50;;;14.57;25.50
19576;BME280;41589;51.196;7.074;2023-04-05T15:37:33;99233.94;;;14.46;25.94
19576;BME280;41589;51.196;7.074;2023-04-05T15:42:33;99240.53;;;14.13;25.61
19576;BME280;41589;51.196;7.074;2023-04-05T15:47:33;99233.47;;;13.70;25.66
19576;BME280;41589;51.196;7.074;2023-04-05T15:52:34;99216.59;;;13.52;25.83
19576;BME280;41589;51.196;7.074;2023-04-05T15:57:35;99224.84;;;13.08;26.37
19576;BME280;41589;51.196;7.074;2023-04-05T16:02:36;99226.88;;;13.07;26.87
19576;BME280;41589;51.196;7.074;2023-04-05T16:07:37;99219.50;;;13.10;26.88
19576;BME280;41589;51.196;7.074;2023-04-05T16:12:37;99217.41;;;12.77;26.96
19576;BME280;41589;51.196;7.074;2023-04-05T16:17:38;99210.72;;;12.65;27.36
19576;BME280;41589;51.196;7.074;2023-04-05T16:22:38;99212.56;;;12.78;27.27
19576;BME280;41589;51.196;7.074;2023-04-05T16:27:38;99214.78;;;12.73;27.28
19576;BME280;41589;51.196;7.074;2023-04-05T16:32:39;99207.78;;;12.51;27.03
19576;BME280;41589;51.196;7.074;2023-04-05T16:37:39;99214.19;;;12.42;27.50
19576;BME280;41589;51.196;7.074;2023-04-05T16:42:40;99215.94;;;12.49;26.90
19576;BME280;41589;51.196;7.074;2023-04-05T16:47:40;99222.25;;;12.07;27.13
19576;BME280;41589;51.196;7.074;2023-04-05T16:52:41;99222.56;;;12.09;27.73
19576;BME280;41589;51.196;7.074;2023-04-05T16:57:41;99216.44;;;12.01;27.80
19576;BME280;41589;51.196;7.074;2023-04-05T17:02:41;99214.69;;;11.95;28.06
19576;BME280;41589;51.196;7.074;2023-04-05T17:07:42;99215.66;;;11.92;28.41
19576;BME280;41589;51.196;7.074;2023-04-05T17:12:42;99210.47;;;11.90;28.88
19576;BME280;41589;51.196;7.074;2023-04-05T17:17:44;99211.72;;;11.71;28.69
19576;BME280;41589;51.196;7.074;2023-04-05T17:22:45;99212.66;;;11.68;28.82
19576;BME280;41589;51.196;7.074;2023-04-05T17:27:45;99216.75;;;11.67;28.83
19576;BME280;41589;51.196;7.074;2023-04-05T17:32:46;99214.69;;;11.67;29.46
19576;BME280;41589;51.196;7.074;2023-04-05T17:37:46;99216.53;;;11.52;28.89
19576;BME280;41589;51.196;7.074;2023-04-05T17:42:47;99215.91;;;11.48;29.65
19576;BME280;41589;51.196;7.074;2023-04-05T17:47:47;99210.56;;;11.41;30.00
19576;BME280;41589;51.196;7.074;2023-04-05T17:52:47;99212.13;;;11.33;30.15
19576;BME280;41589;51.196;7.074;2023-04-05T17:57:48;99219.56;;;11.17;30.27
19576;BME280;41589;51.196;7.074;2023-04-05T18:02:48;99214.31;;;10.97;31.04
19576;BME280;41589;51.196;7.074;2023-04-05T18:07:48;99219.88;;;10.79;30.92
19576;BME280;41589;51.196;7.074;2023-04-05T18:12:49;99216.38;;;10.66;30.93
19576;BME280;41589;51.196;7.074;2023-04-05T18:17:49;99222.09;;;10.53;31.17
19576;BME280;41589;51.196;7.074;2023-04-05T18:22:50;99228.59;;;10.41;31.48
19576;BME280;41589;51.196;7.074;2023-04-05T18:27:50;99224.16;;;10.31;31.88
19576;BME280;41589;51.196;7.074;2023-04-05T18:32:51;99223.31;;;10.21;31.90
19576;BME280;41589;51.196;7.074;2023-04-05T18:37:51;99233.38;;;10.09;32.10
19576;BME280;41589;51.196;7.074;2023-04-05T18:42:51;99227.69;;;10.00;32.16
19576;BME280;41589;51.196;7.074;2023-04-05T18:47:52;99234.31;;;9.94;32.37
19576;BME280;41589;51.196;7.074;2023-04-05T18:52:52;99236.59;;;9.86;32.46
19576;BME280;41589;51.196;7.074;2023-04-05T18:57:53;99238.06;;;9.78;32.68
19576;BME280;41589;51.196;7.074;2023-04-05T19:02:53;99244.84;;;9.68;32.78
19576;BME280;41589;51.196;7.074;2023-04-05T19:07:53;99251.63;;;9.57;33.00
19576;BME280;41589;51.196;7.074;2023-04-05T19:12:54;99249.03;;;9.50;32.93
19576;BME280;41589;51.196;7.074;2023-04-05T19:17:54;99256.59;;;9.41;33.50
19576;BME280;41589;51.196;7.074;2023-04-05T19:22:55;99260.06;;;9.32;33.54
19576;BME280;41589;51.196;7.074;2023-04-05T19:27:55;99263.69;;;9.20;33.54
19576;BME280;41589;51.196;7.074;2023-04-05T19:32:56;99264.34;;;9.11;33.95
19576;BME280;41589;51.196;7.074;2023-04-05T19:37:57;99260.31;;;8.99;34.08
19576;BME280;41589;51.196;7.074;2023-04-05T19:43:00;99256.16;;;8.91;34.44
19576;BME280;41589;51.196;7.074;2023-04-05T19:48:01;99247.28;;;8.80;34.37
19576;BME280;41589;51.196;7.074;2023-04-05T19:53:06;99248.31;;;8.74;34.85
19576;BME280;41589;51.196;7.074;2023-04-05T19:58:08;99243.09;;;8.72;35.10
19576;BME280;41589;51.196;7.074;2023-04-05T20:08:32;99246.34;;;8.58;35.35
19576;BME280;41589;51.196;7.074;2023-04-05T20:13:41;99248.91;;;8.52;35.38
19576;BME280;41589;51.196;7.074;2023-04-05T20:18:46;99241.41;;;8.49;35.81
19576;BME280;41589;51.196;7.074;2023-04-05T20:23:47;99246.66;;;8.47;35.37
19576;BME280;41589;51.196;7.074;2023-04-05T20:28:51;99240.81;;;8.41;35.43
19576;BME280;41589;51.196;7.074;2023-04-05T20:34:10;99241.03;;;8.34;35.05
19576;BME280;41589;51.196;7.074;2023-04-05T20:39:11;99241.03;;;8.34;34.91
19576;BME280;41589;51.196;7.074;2023-04-05T20:44:11;99228.38;;;8.43;34.72
19576;BME280;41589;51.196;7.074;2023-04-05T20:49:11;99232.06;;;8.52;34.39
19576;BME280;41589;51.196;7.074;2023-04-05T20:54:12;99229.53;;;8.58;33.73
19576;BME280;41589;51.196;7.074;2023-04-05T20:59:13;99227.28;;;8.65;33.34
19576;BME280;41589;51.196;7.074;2023-04-05T21:04:14;99215.63;;;8.67;32.77
19576;BME280;41589;51.196;7.074;2023-04-05T21:09:14;99219.41;;;8.73;33.09
19576;BME280;41589;51.196;7.074;2023-04-05T21:14:15;99212.94;;;8.76;32.86
19576;BME280;41589;51.196;7.074;2023-04-05T21:19:15;99210.22;;;8.73;32.38
19576;BME280;41589;51.196;7.074;2023-04-05T21:24:15;99215.81;;;8.73;32.36
19576;BME280;41589;51.196;7.074;2023-04-05T21:29:16;99210.66;;;8.71;32.45
19576;BME280;41589;51.196;7.074;2023-04-05T21:34:16;99209.34;;;8.76;32.39
19576;BME280;41589;51.196;7.074;2023-04-05T21:39:16;99215.75;;;8.76;32.48
19576;BME280;41589;51.196;7.074;2023-04-05T21:44:17;99215.16;;;8.68;32.40
19576;BME280;41589;51.196;7.074;2023-04-05T21:49:17;99213.47;;;8.58;32.31
19576;BME280;41589;51.196;7.074;2023-04-05T21:54:17;99203.25;;;8.52;31.92
19576;BME280;41589;51.196;7.074;2023-04-05T21:59:17;99182.28;;;8.44;32.65
19576;BME280;41589;51.196;7.074;2023-04-05T22:04:18;99197.63;;;8.39;32.47
19576;BME280;41589;51.196;7.074;2023-04-05T22:09:18;99198.63;;;8.32;32.28
19576;BME280;41589;51.196;7.074;2023-04-05T22:14:19;99194.59;;;8.33;31.97
19576;BME280;41589;51.196;7.074;2023-04-05T22:19:19;99182.34;;;8.27;32.33
19576;BME280;41589;51.196;7.074;2023-04-05T22:24:20;99183.28;;;8.21;32.25
19576;BME280;41589;51.196;7.074;2023-04-05T22:29:25;99178.69;;;8.14;32.67
19576;BME280;41589;51.196;7.074;2023-04-05T22:34:25;99175.56;;;8.12;32.53
19576;BME280;41589;51.196;7.074;2023-04-05T22:39:26;99175.97;;;8.10;32.91
19576;BME280;41589;51.196;7.074;2023-04-05T22:44:26;99173.94;;;7.98;33.14
19576;BME280;41589;51.196;7.074;2023-04-05T22:49:28;99171.56;;;7.97;33.36
19576;BME280;41589;51.196;7.074;2023-04-05T22:54:28;99182.97;;;7.90;33.54
19576;BME280;41589;51.196;7.074;2023-04-05T22:59:28;99167.16;;;7.83;34.07
19576;BME280;41589;51.196;7.074;2023-04-05T23:04:29;99168.06;;;7.80;33.80
19576;BME280;41589;51.196;7.074;2023-04-05T23:09:29;99161.75;;;7.76;34.07
19576;BME280;41589;51.196;7.074;2023-04-05T23:14:30;99163.44;;;7.73;34.04
19576;BME280;41589;51.196;7.074;2023-04-05T23:19:31;99152.75;;;7.68;34.79
19576;BME280;41589;51.196;7.074;2023-04-05T23:24:31;99151.03;;;7.58;34.90
19576;BME280;41589;51.196;7.074;2023-04-05T23:29:31;99159.88;;;7.57;35.00
19576;BME280;41589;51.196;7.074;2023-04-05T23:34:31;99146.50;;;7.48;35.74
19576;BME280;41589;51.196;7.074;2023-04-05T23:39:32;99143.81;;;7.44;35.75
19576;BME280;41589;51.196;7.074;2023-04-05T23:44:33;99141.13;;;7.41;36.09
19576;BME280;41589;51.196;7.074;2023-04-05T23:49:33;99139.03;;;7.29;36.34
19576;BME280;41589;51.196;7.074;2023-04-05T23:54:33;99141.84;;;7.29;36.38
19576;BME280;41589;51.196;7.074;2023-04-05T23:59:34;99131.25;;;7.20;36.69
